sensor_id;sensor_type;location;lat;lon;timestamp;P1;durP1;ratioP1;P2;durP2;ratioP2
72904;SDS011;61048;52.162;4.516;2022-12-01T00:00:38;13.10;;;7.75;;
72904;SDS011;61048;52.162;4.516;2022-12-01T00:03:06;13.80;;;6.82;;
72904;SDS011;61048;52.162;4.516;2022-12-01T00:05:34;14.15;;;7.57;;
72904;SDS011;61048;52.162;4.516;2022-12-01T00:08:01;11.30;;;7.45;;
72904;SDS011;61048;52.162;4.516;2022-12-01T00:10:29;12.55;;;6.38;;
72904;SDS011;61048;52.162;4.516;2022-12-01T00:12:57;12.80;;;7.28;;
72904;SDS011;61048;52.162;4.516;2022-12-01T00:15:26;12.57;;;6.05;;
72904;SDS011;61048;52.162;4.516;2022-12-01T00:17:54;13.77;;;6.78;;
72904;SDS011;61048;52.162;4.516;2022-12-01T00:20:22;14.05;;;8.45;;
72904;SDS011;61048;52.162;4.516;2022-12-01T00:22:51;12.50;;;7.68;;
72904;SDS011;61048;52.162;4.516;2022-12-01T00:25:18;13.75;;;7.32;;
72904;SDS011;61048;52.162;4.516;2022-12-01T00:27:46;14.40;;;6.88;;
72904;SDS011;61048;52.162;4.516;2022-12-01T00:30:14;14.25;;;6.78;;
72904;SDS011;61048;52.162;4.516;2022-12-01T00:32:41;13.52;;;7.60;;
72904;SDS011;61048;52.162;4.516;2022-12-01T00:35:08;13.35;;;7.70;;
72904;SDS011;61048;52.162;4.516;2022-12-01T00:37:35;14.60;;;6.78;;
72904;SDS011;61048;52.162;4.516;2022-12-01T00:40:04;13.63;;;6.63;;
72904;SDS011;61048;52.162;4.516;2022-12-01T00:42:33;13.15;;;6.78;;
72904;SDS011;61048;52.162;4.516;2022-12-01T00:44:59;12.25;;;6.65;;
72904;SDS011;61048;52.162;4.516;2022-12-01T00:47:26;14.25;;;7.47;;
72904;SDS011;61048;52.162;4.516;2022-12-01T00:49:53;16.98;;;7.93;;
72904;SDS011;61048;52.162;4.516;2022-12-01T00:52:20;17.35;;;9.27;;
72904;SDS011;61048;52.162;4.516;2022-12-01T00:54:47;15.70;;;7.45;;
72904;SDS011;61048;52.162;4.516;2022-12-01T00:57:15;14.70;;;8.85;;
72904;SDS011;61048;52.162;4.516;2022-12-01T00:59:42;16.20;;;7.72;;
72904;SDS011;61048;52.162;4.516;2022-12-01T01:02:09;16.00;;;8.70;;
72904;SDS011;61048;52.162;4.516;2022-12-01T01:04:36;14.88;;;7.65;;
72904;SDS011;61048;52.162;4.516;2022-12-01T01:07:03;14.23;;;7.47;;
72904;SDS011;61048;52.162;4.516;2022-12-01T01:09:30;15.55;;;7.32;;
72904;SDS011;61048;52.162;4.516;2022-12-01T01:11:57;16.45;;;7.75;;
72904;SDS011;61048;52.162;4.516;2022-12-01T01:14:26;16.75;;;9.57;;
72904;SDS011;61048;52.162;4.516;2022-12-01T01:16:53;15.52;;;9.30;;
72904;SDS011;61048;52.162;4.516;2022-12-01T01:19:20;17.92;;;8.25;;
72904;SDS011;61048;52.162;4.516;2022-12-01T01:21:48;15.18;;;8.10;;
72904;SDS011;61048;52.162;4.516;2022-12-01T01:24:14;15.50;;;7.45;;
72904;SDS011;61048;52.162;4.516;2022-12-01T01:26:41;15.88;;;7.97;;
72904;SDS011;61048;52.162;4.516;2022-12-01T01:29:08;18.00;;;9.00;;
72904;SDS011;61048;52.162;4.516;2022-12-01T01:31:36;17.85;;;9.52;;
72904;SDS011;61048;52.162;4.516;2022-12-01T01:34:03;16.00;;;8.48;;
72904;SDS011;61048;52.162;4.516;2022-12-01T01:36:30;15.23;;;8.35;;
72904;SDS011;61048;52.162;4.516;2022-12-01T01:38:58;15.57;;;7.93;;
72904;SDS011;61048;52.162;4.516;2022-12-01T01:41:26;15.70;;;7.53;;
72904;SDS011;61048;52.162;4.516;2022-12-01T01:43:53;17.10;;;8.02;;
72904;SDS011;61048;52.162;4.516;2022-12-01T01:46:22;17.88;;;8.90;;
72904;SDS011;61048;52.162;4.516;2022-12-01T01:48:52;18.15;;;9.15;;
72904;SDS011;61048;52.162;4.516;2022-12-01T01:51:26;15.40;;;7.43;;
72904;SDS011;61048;52.162;4.516;2022-12-01T01:53:57;14.75;;;8.60;;
72904;SDS011;61048;52.162;4.516;2022-12-01T01:56:28;17.83;;;9.32;;
72904;SDS011;61048;52.162;4.516;2022-12-01T01:58:55;18.30;;;9.70;;
72904;SDS011;61048;52.162;4.516;2022-12-01T02:01:23;15.23;;;9.05;;
72904;SDS011;61048;52.162;4.516;2022-12-01T02:03:52;17.17;;;9.00;;
72904;SDS011;61048;52.162;4.516;2022-12-01T02:06:19;17.52;;;9.57;;
72904;SDS011;61048;52.162;4.516;2022-12-01T02:08:47;17.55;;;7.78;;
72904;SDS011;61048;52.162;4.516;2022-12-01T02:11:37;17.92;;;8.35;;
72904;SDS011;61048;52.162;4.516;2022-12-01T02:14:32;18.15;;;8.45;;
72904;SDS011;61048;52.162;4.516;2022-12-01T02:17:10;16.60;;;9.13;;
72904;SDS011;61048;52.162;4.516;2022-12-01T02:20:01;16.25;;;8.02;;
72904;SDS011;61048;52.162;4.516;2022-12-01T02:22:50;16.20;;;8.25;;
72904;SDS011;61048;52.162;4.516;2022-12-01T02:25:40;15.85;;;7.97;;
72904;SDS011;61048;52.162;4.516;2022-12-01T02:28:25;16.65;;;8.85;;
72904;SDS011;61048;52.162;4.516;2022-12-01T02:31:15;16.75;;;8.10;;
72904;SDS011;61048;52.162;4.516;2022-12-01T02:33:49;17.42;;;8.00;;
72904;SDS011;61048;52.162;4.516;2022-12-01T02:36:19;15.93;;;9.10;;
72904;SDS011;61048;52.162;4.516;2022-12-01T02:38:53;15.60;;;7.97;;
72904;SDS011;61048;52.162;4.516;2022-12-01T02:41:25;16.13;;;9.50;;
72904;SDS011;61048;52.162;4.516;2022-12-01T02:43:56;19.52;;;8.75;;
72904;SDS011;61048;52.162;4.516;2022-12-01T02:46:29;15.18;;;7.93;;
72904;SDS011;61048;52.162;4.516;2022-12-01T02:49:02;16.83;;;8.75;;
72904;SDS011;61048;52.162;4.516;2022-12-01T02:51:33;16.63;;;8.10;;
72904;SDS011;61048;52.162;4.516;2022-12-01T02:54:03;17.65;;;10.05;;
72904;SDS011;61048;52.162;4.516;2022-12-01T02:56:31;16.98;;;7.95;;
72904;SDS011;61048;52.162;4.516;2022-12-01T02:58:58;17.27;;;7.72;;
72904;SDS011;61048;52.162;4.516;2022-12-01T03:01:41;16.02;;;8.13;;
72904;SDS011;61048;52.162;4.516;2022-12-01T03:04:30;16.60;;;8.70;;
72904;SDS011;61048;52.162;4.516;2022-12-01T03:07:10;15.02;;;7.40;;
72904;SDS011;61048;52.162;4.516;2022-12-01T03:09:45;17.92;;;8.80;;
72904;SDS011;61048;52.162;4.516;2022-12-01T03:12:22;16.42;;;8.90;;
72904;SDS011;61048;52.162;4.516;2022-12-01T03:14:57;15.40;;;7.57;;
72904;SDS011;61048;52.162;4.516;2022-12-01T03:17:34;15.68;;;6.85;;
72904;SDS011;61048;52.162;4.516;2022-12-01T03:20:08;14.00;;;7.32;;
72904;SDS011;61048;52.162;4.516;2022-12-01T03:22:40;14.68;;;7.25;;
72904;SDS011;61048;52.162;4.516;2022-12-01T03:25:11;14.10;;;6.70;;
72904;SDS011;61048;52.162;4.516;2022-12-01T03:27:40;15.77;;;7.45;;
72904;SDS011;61048;52.162;4.516;2022-12-01T03:30:12;14.63;;;8.50;;
72904;SDS011;61048;52.162;4.516;2022-12-01T03:32:42;14.05;;;7.03;;
72904;SDS011;61048;52.162;4.516;2022-12-01T03:35:14;14.85;;;6.97;;
72904;SDS011;61048;52.162;4.516;2022-12-01T03:37:46;16.35;;;9.45;;
72904;SDS011;61048;52.162;4.516;2022-12-01T03:42:47;13.68;;;6.82;;
72904;SDS011;61048;52.162;4.516;2022-12-01T03:45:18;14.13;;;7.32;;
72904;SDS011;61048;52.162;4.516;2022-12-01T03:47:53;14.00;;;7.13;;
72904;SDS011;61048;52.162;4.516;2022-12-01T03:50:20;14.13;;;7.72;;
72904;SDS011;61048;52.162;4.516;2022-12-01T03:52:51;13.88;;;7.25;;
72904;SDS011;61048;52.162;4.516;2022-12-01T03:55:26;13.32;;;7.88;;
72904;SDS011;61048;52.162;4.516;2022-12-01T03:57:55;13.70;;;7.45;;
72904;SDS011;61048;52.162;4.516;2022-12-01T04:00:26;15.30;;;8.02;;
72904;SDS011;61048;52.162;4.516;2022-12-01T04:02:55;17.15;;;9.18;;
72904;SDS011;61048;52.162;4.516;2022-12-01T04:05:23;14.75;;;8.95;;
72904;SDS011;61048;52.162;4.516;2022-12-01T04:07:51;15.95;;;7.43;;
72904;SDS011;61048;52.162;4.516;2022-12-01T04:10:18;13.82;;;7.82;;
72904;SDS011;61048;52.162;4.516;2022-12-01T04:12:45;15.48;;;8.43;;
72904;SDS011;61048;52.162;4.516;2022-12-01T04:15:11;14.93;;;8.05;;
72904;SDS011;61048;52.162;4.516;2022-12-01T04:17:39;14.05;;;7.85;;
72904;SDS011;61048;52.162;4.516;2022-12-01T04:20:10;15.13;;;8.38;;
72904;SDS011;61048;52.162;4.516;2022-12-01T04:22:38;14.02;;;7.50;;
72904;SDS011;61048;52.162;4.516;2022-12-01T04:25:05;13.80;;;7.10;;
72904;SDS011;61048;52.162;4.516;2022-12-01T04:27:33;15.90;;;7.03;;
72904;SDS011;61048;52.162;4.516;2022-12-01T04:30:00;14.63;;;7.07;;
72904;SDS011;61048;52.162;4.516;2022-12-01T04:32:27;13.65;;;8.73;;
72904;SDS011;61048;52.162;4.516;2022-12-01T04:34:54;15.25;;;8.15;;
72904;SDS011;61048;52.162;4.516;2022-12-01T04:37:22;15.75;;;7.15;;
72904;SDS011;61048;52.162;4.516;2022-12-01T04:39:49;13.55;;;7.53;;
72904;SDS011;61048;52.162;4.516;2022-12-01T04:42:16;15.25;;;7.70;;
72904;SDS011;61048;52.162;4.516;2022-12-01T04:44:43;13.70;;;7.30;;
72904;SDS011;61048;52.162;4.516;2022-12-01T04:47:09;16.15;;;7.97;;
72904;SDS011;61048;52.162;4.516;2022-12-01T04:49:36;14.18;;;7.82;;
72904;SDS011;61048;52.162;4.516;2022-12-01T04:52:03;15.07;;;8.55;;
72904;SDS011;61048;52.162;4.516;2022-12-01T04:54:32;13.85;;;7.93;;
72904;SDS011;61048;52.162;4.516;2022-12-01T04:56:59;11.75;;;6.25;;
72904;SDS011;61048;52.162;4.516;2022-12-01T04:59:26;14.52;;;8.00;;
72904;SDS011;61048;52.162;4.516;2022-12-01T05:01:53;15.00;;;8.48;;
72904;SDS011;61048;52.162;4.516;2022-12-01T05:04:20;15.25;;;7.35;;
72904;SDS011;61048;52.162;4.516;2022-12-01T05:06:47;13.52;;;6.78;;
72904;SDS011;61048;52.162;4.516;2022-12-01T05:09:14;15.07;;;8.65;;
72904;SDS011;61048;52.162;4.516;2022-12-01T05:11:43;13.38;;;6.28;;
72904;SDS011;61048;52.162;4.516;2022-12-01T05:14:10;13.15;;;6.35;;
72904;SDS011;61048;52.162;4.516;2022-12-01T05:16:37;12.68;;;6.05;;
72904;SDS011;61048;52.162;4.516;2022-12-01T05:19:04;15.40;;;6.82;;
72904;SDS011;61048;52.162;4.516;2022-12-01T05:21:50;13.32;;;6.45;;
72904;SDS011;61048;52.162;4.516;2022-12-01T05:24:17;14.60;;;7.05;;
72904;SDS011;61048;52.162;4.516;2022-12-01T05:26:46;11.52;;;7.55;;
72904;SDS011;61048;52.162;4.516;2022-12-01T05:29:13;15.90;;;7.85;;
72904;SDS011;61048;52.162;4.516;2022-12-01T05:31:40;14.32;;;7.93;;
72904;SDS011;61048;52.162;4.516;2022-12-01T05:34:07;14.32;;;6.53;;
72904;SDS011;61048;52.162;4.516;2022-12-01T05:36:34;15.07;;;7.75;;
72904;SDS011;61048;52.162;4.516;2022-12-01T05:39:01;15.10;;;7.15;;
72904;SDS011;61048;52.162;4.516;2022-12-01T05:41:28;16.42;;;8.35;;
72904;SDS011;61048;52.162;4.516;2022-12-01T05:43:56;14.88;;;6.88;;
72904;SDS011;61048;52.162;4.516;2022-12-01T05:46:23;15.68;;;7.85;;
72904;SDS011;61048;52.162;4.516;2022-12-01T05:48:50;14.75;;;7.85;;
72904;SDS011;61048;52.162;4.516;2022-12-01T05:51:17;17.50;;;7.22;;
72904;SDS011;61048;52.162;4.516;2022-12-01T05:53:44;15.23;;;6.60;;
72904;SDS011;61048;52.162;4.516;2022-12-01T05:56:11;14.90;;;7.07;;
72904;SDS011;61048;52.162;4.516;2022-12-01T05:58:38;14.60;;;6.78;;
72904;SDS011;61048;52.162;4.516;2022-12-01T06:01:06;15.43;;;7.05;;
72904;SDS011;61048;52.162;4.516;2022-12-01T06:03:33;14.65;;;8.32;;
72904;SDS011;61048;52.162;4.516;2022-12-01T06:06:00;16.73;;;8.93;;
72904;SDS011;61048;52.162;4.516;2022-12-01T06:08:27;16.42;;;7.57;;
72904;SDS011;61048;52.162;4.516;2022-12-01T06:10:54;16.20;;;8.02;;
72904;SDS011;61048;52.162;4.516;2022-12-01T06:13:20;35.00;;;11.30;;
72904;SDS011;61048;52.162;4.516;2022-12-01T06:15:54;47.72;;;15.02;;
72904;SDS011;61048;52.162;4.516;2022-12-01T06:18:24;62.65;;;17.48;;
72904;SDS011;61048;52.162;4.516;2022-12-01T06:20:51;64.57;;;18.38;;
72904;SDS011;61048;52.162;4.516;2022-12-01T06:23:18;72.05;;;19.67;;
72904;SDS011;61048;52.162;4.516;2022-12-01T06:25:45;68.78;;;19.00;;
72904;SDS011;61048;52.162;4.516;2022-12-01T06:28:12;66.40;;;19.15;;
72904;SDS011;61048;52.162;4.516;2022-12-01T06:30:38;58.47;;;17.25;;
72904;SDS011;61048;52.162;4.516;2022-12-01T06:33:05;61.28;;;17.33;;
72904;SDS011;61048;52.162;4.516;2022-12-01T06:35:34;63.50;;;18.45;;
72904;SDS011;61048;52.162;4.516;2022-12-01T06:38:01;55.38;;;17.67;;
72904;SDS011;61048;52.162;4.516;2022-12-01T06:40:28;66.10;;;18.23;;
72904;SDS011;61048;52.162;4.516;2022-12-01T06:42:57;58.63;;;17.98;;
72904;SDS011;61048;52.162;4.516;2022-12-01T06:45:25;57.13;;;16.13;;
72904;SDS011;61048;52.162;4.516;2022-12-01T06:47:52;52.88;;;16.48;;
72904;SDS011;61048;52.162;4.516;2022-12-01T06:50:19;49.60;;;15.95;;
72904;SDS011;61048;52.162;4.516;2022-12-01T06:52:48;51.00;;;16.55;;
72904;SDS011;61048;52.162;4.516;2022-12-01T06:55:16;46.60;;;14.65;;
72904;SDS011;61048;52.162;4.516;2022-12-01T06:57:43;46.65;;;15.43;;
72904;SDS011;61048;52.162;4.516;2022-12-01T07:00:10;44.60;;;15.48;;
72904;SDS011;61048;52.162;4.516;2022-12-01T07:02:38;50.78;;;17.25;;
72904;SDS011;61048;52.162;4.516;2022-12-01T07:05:05;42.83;;;14.43;;
72904;SDS011;61048;52.162;4.516;2022-12-01T07:07:34;43.50;;;13.65;;
72904;SDS011;61048;52.162;4.516;2022-12-01T07:10:02;49.53;;;13.55;;
72904;SDS011;61048;52.162;4.516;2022-12-01T07:12:30;38.58;;;14.02;;
72904;SDS011;61048;52.162;4.516;2022-12-01T07:14:57;42.05;;;15.10;;
72904;SDS011;61048;52.162;4.516;2022-12-01T07:17:24;38.85;;;13.90;;
72904;SDS011;61048;52.162;4.516;2022-12-01T07:19:51;35.80;;;14.10;;
72904;SDS011;61048;52.162;4.516;2022-12-01T07:22:17;35.05;;;13.20;;
72904;SDS011;61048;52.162;4.516;2022-12-01T07:24:44;39.63;;;15.27;;
72904;SDS011;61048;52.162;4.516;2022-12-01T07:27:12;41.00;;;14.35;;
72904;SDS011;61048;52.162;4.516;2022-12-01T07:29:39;36.67;;;12.77;;
72904;SDS011;61048;52.162;4.516;2022-12-01T07:32:06;32.05;;;13.55;;
72904;SDS011;61048;52.162;4.516;2022-12-01T07:34:33;37.63;;;14.45;;
72904;SDS011;61048;52.162;4.516;2022-12-01T07:37:00;37.15;;;15.38;;
72904;SDS011;61048;52.162;4.516;2022-12-01T07:39:27;33.20;;;14.25;;
72904;SDS011;61048;52.162;4.516;2022-12-01T07:41:53;33.92;;;12.70;;
72904;SDS011;61048;52.162;4.516;2022-12-01T07:44:22;37.05;;;14.85;;
72904;SDS011;61048;52.162;4.516;2022-12-01T07:46:50;30.67;;;13.30;;
72904;SDS011;61048;52.162;4.516;2022-12-01T07:49:16;37.13;;;13.43;;
72904;SDS011;61048;52.162;4.516;2022-12-01T07:51:43;29.25;;;13.27;;
72904;SDS011;61048;52.162;4.516;2022-12-01T07:54:10;32.20;;;13.50;;
72904;SDS011;61048;52.162;4.516;2022-12-01T07:56:38;34.05;;;14.55;;
72904;SDS011;61048;52.162;4.516;2022-12-01T07:59:05;32.95;;;12.43;;
72904;SDS011;61048;52.162;4.516;2022-12-01T08:01:33;34.30;;;14.40;;
72904;SDS011;61048;52.162;4.516;2022-12-01T08:04:00;31.70;;;12.70;;
72904;SDS011;61048;52.162;4.516;2022-12-01T08:06:27;32.28;;;13.82;;
72904;SDS011;61048;52.162;4.516;2022-12-01T08:08:54;26.40;;;12.43;;
72904;SDS011;61048;52.162;4.516;2022-12-01T08:11:21;33.90;;;13.55;;
72904;SDS011;61048;52.162;4.516;2022-12-01T08:13:50;30.15;;;12.65;;
72904;SDS011;61048;52.162;4.516;2022-12-01T08:16:18;33.75;;;14.00;;
72904;SDS011;61048;52.162;4.516;2022-12-01T08:18:48;28.70;;;12.48;;
72904;SDS011;61048;52.162;4.516;2022-12-01T08:21:16;26.95;;;12.13;;
72904;SDS011;61048;52.162;4.516;2022-12-01T08:23:45;24.23;;;10.90;;
72904;SDS011;61048;52.162;4.516;2022-12-01T08:26:12;23.65;;;10.48;;
72904;SDS011;61048;52.162;4.516;2022-12-01T08:28:41;28.20;;;13.13;;
72904;SDS011;61048;52.162;4.516;2022-12-01T08:31:09;27.25;;;11.98;;
72904;SDS011;61048;52.162;4.516;2022-12-01T08:33:37;25.50;;;11.77;;
72904;SDS011;61048;52.162;4.516;2022-12-01T08:36:06;26.70;;;11.63;;
72904;SDS011;61048;52.162;4.516;2022-12-01T08:38:34;26.52;;;11.30;;
72904;SDS011;61048;52.162;4.516;2022-12-01T08:41:01;28.08;;;12.57;;
72904;SDS011;61048;52.162;4.516;2022-12-01T08:43:29;27.20;;;12.88;;
72904;SDS011;61048;52.162;4.516;2022-12-01T08:45:56;26.27;;;11.80;;
72904;SDS011;61048;52.162;4.516;2022-12-01T08:48:23;25.17;;;11.52;;
72904;SDS011;61048;52.162;4.516;2022-12-01T08:50:59;27.35;;;11.23;;
72904;SDS011;61048;52.162;4.516;2022-12-01T08:53:28;28.67;;;14.05;;
72904;SDS011;61048;52.162;4.516;2022-12-01T08:55:57;27.15;;;13.00;;
72904;SDS011;61048;52.162;4.516;2022-12-01T08:58:25;27.35;;;13.23;;
72904;SDS011;61048;52.162;4.516;2022-12-01T09:00:52;27.73;;;12.38;;
72904;SDS011;61048;52.162;4.516;2022-12-01T09:03:25;27.70;;;13.80;;
72904;SDS011;61048;52.162;4.516;2022-12-01T09:05:52;26.00;;;11.93;;
72904;SDS011;61048;52.162;4.516;2022-12-01T09:08:19;29.83;;;13.70;;
72904;SDS011;61048;52.162;4.516;2022-12-01T09:11:01;29.27;;;12.77;;
72904;SDS011;61048;52.162;4.516;2022-12-01T09:13:29;28.92;;;13.45;;
72904;SDS011;61048;52.162;4.516;2022-12-01T09:15:57;31.83;;;13.23;;
72904;SDS011;61048;52.162;4.516;2022-12-01T09:18:25;27.42;;;12.00;;
72904;SDS011;61048;52.162;4.516;2022-12-01T09:20:52;29.25;;;12.73;;
72904;SDS011;61048;52.162;4.516;2022-12-01T09:23:20;28.48;;;13.18;;
72904;SDS011;61048;52.162;4.516;2022-12-01T09:25:47;28.65;;;12.98;;
72904;SDS011;61048;52.162;4.516;2022-12-01T09:28:16;33.45;;;13.93;;
72904;SDS011;61048;52.162;4.516;2022-12-01T09:30:43;31.08;;;13.70;;
72904;SDS011;61048;52.162;4.516;2022-12-01T09:33:10;28.20;;;12.75;;
72904;SDS011;61048;52.162;4.516;2022-12-01T09:35:37;30.88;;;13.82;;
72904;SDS011;61048;52.162;4.516;2022-12-01T09:38:04;30.40;;;14.10;;
72904;SDS011;61048;52.162;4.516;2022-12-01T09:40:33;27.50;;;12.95;;
72904;SDS011;61048;52.162;4.516;2022-12-01T09:43:03;29.75;;;12.80;;
72904;SDS011;61048;52.162;4.516;2022-12-01T09:45:37;26.45;;;13.00;;
72904;SDS011;61048;52.162;4.516;2022-12-01T09:48:12;32.28;;;12.50;;
72904;SDS011;61048;52.162;4.516;2022-12-01T09:50:47;31.55;;;12.98;;
72904;SDS011;61048;52.162;4.516;2022-12-01T09:53:16;27.80;;;12.07;;
72904;SDS011;61048;52.162;4.516;2022-12-01T09:55:46;27.70;;;11.65;;
72904;SDS011;61048;52.162;4.516;2022-12-01T09:58:15;27.95;;;12.65;;
72904;SDS011;61048;52.162;4.516;2022-12-01T10:00:45;30.42;;;14.55;;
72904;SDS011;61048;52.162;4.516;2022-12-01T10:03:15;29.77;;;14.43;;
72904;SDS011;61048;52.162;4.516;2022-12-01T10:05:49;30.45;;;14.65;;
72904;SDS011;61048;52.162;4.516;2022-12-01T10:08:20;33.53;;;17.38;;
72904;SDS011;61048;52.162;4.516;2022-12-01T10:10:50;32.47;;;13.25;;
72904;SDS011;61048;52.162;4.516;2022-12-01T10:13:20;32.67;;;13.13;;
72904;SDS011;61048;52.162;4.516;2022-12-01T10:15:50;33.05;;;13.45;;
72904;SDS011;61048;52.162;4.516;2022-12-01T10:18:28;32.60;;;14.85;;
72904;SDS011;61048;52.162;4.516;2022-12-01T10:21:02;33.67;;;15.95;;
72904;SDS011;61048;52.162;4.516;2022-12-01T10:23:39;32.17;;;14.57;;
72904;SDS011;61048;52.162;4.516;2022-12-01T10:26:17;31.25;;;14.60;;
72904;SDS011;61048;52.162;4.516;2022-12-01T10:31:45;34.78;;;14.20;;
72904;SDS011;61048;52.162;4.516;2022-12-01T10:34:19;33.80;;;14.07;;
72904;SDS011;61048;52.162;4.516;2022-12-01T10:36:47;33.10;;;17.33;;
72904;SDS011;61048;52.162;4.516;2022-12-01T10:39:15;32.47;;;14.95;;
72904;SDS011;61048;52.162;4.516;2022-12-01T10:41:45;34.50;;;15.93;;
72904;SDS011;61048;52.162;4.516;2022-12-01T10:44:14;33.05;;;14.10;;
72904;SDS011;61048;52.162;4.516;2022-12-01T10:46:45;29.17;;;13.65;;
72904;SDS011;61048;52.162;4.516;2022-12-01T10:49:16;29.90;;;13.52;;
72904;SDS011;61048;52.162;4.516;2022-12-01T10:51:47;32.47;;;14.30;;
72904;SDS011;61048;52.162;4.516;2022-12-01T10:54:17;31.83;;;14.15;;
72904;SDS011;61048;52.162;4.516;2022-12-01T10:56:46;32.60;;;16.05;;
72904;SDS011;61048;52.162;4.516;2022-12-01T10:59:19;29.60;;;14.88;;
72904;SDS011;61048;52.162;4.516;2022-12-01T11:02:00;32.63;;;16.50;;
72904;SDS011;61048;52.162;4.516;2022-12-01T11:04:32;31.98;;;14.68;;
72904;SDS011;61048;52.162;4.516;2022-12-01T11:07:06;30.90;;;13.80;;
72904;SDS011;61048;52.162;4.516;2022-12-01T11:09:42;30.58;;;14.40;;
72904;SDS011;61048;52.162;4.516;2022-12-01T11:12:12;34.15;;;14.15;;
72904;SDS011;61048;52.162;4.516;2022-12-01T11:14:45;30.13;;;14.25;;
72904;SDS011;61048;52.162;4.516;2022-12-01T11:17:16;30.02;;;14.32;;
72904;SDS011;61048;52.162;4.516;2022-12-01T11:19:51;30.52;;;14.13;;
72904;SDS011;61048;52.162;4.516;2022-12-01T11:22:19;30.63;;;14.43;;
72904;SDS011;61048;52.162;4.516;2022-12-01T11:25:01;28.90;;;14.70;;
72904;SDS011;61048;52.162;4.516;2022-12-01T11:27:31;34.88;;;16.35;;
72904;SDS011;61048;52.162;4.516;2022-12-01T11:30:00;29.55;;;14.23;;
72904;SDS011;61048;52.162;4.516;2022-12-01T11:32:31;30.25;;;13.48;;
72904;SDS011;61048;52.162;4.516;2022-12-01T11:35:02;29.30;;;14.98;;
72904;SDS011;61048;52.162;4.516;2022-12-01T11:37:31;29.70;;;13.45;;
72904;SDS011;61048;52.162;4.516;2022-12-01T11:40:05;32.40;;;15.90;;
72904;SDS011;61048;52.162;4.516;2022-12-01T11:42:39;30.20;;;15.25;;
72904;SDS011;61048;52.162;4.516;2022-12-01T11:45:07;30.10;;;14.70;;
72904;SDS011;61048;52.162;4.516;2022-12-01T11:48:00;28.45;;;15.07;;
72904;SDS011;61048;52.162;4.516;2022-12-01T11:50:30;29.23;;;13.02;;
72904;SDS011;61048;52.162;4.516;2022-12-01T11:52:59;31.45;;;14.60;;
72904;SDS011;61048;52.162;4.516;2022-12-01T11:55:26;31.95;;;15.75;;
72904;SDS011;61048;52.162;4.516;2022-12-01T11:57:55;28.23;;;14.38;;
72904;SDS011;61048;52.162;4.516;2022-12-01T12:00:26;27.08;;;12.65;;
72904;SDS011;61048;52.162;4.516;2022-12-01T12:02:58;28.38;;;14.38;;
72904;SDS011;61048;52.162;4.516;2022-12-01T12:08:26;30.08;;;15.13;;
72904;SDS011;61048;52.162;4.516;2022-12-01T12:11:07;31.60;;;14.02;;
72904;SDS011;61048;52.162;4.516;2022-12-01T12:13:48;31.73;;;14.27;;
72904;SDS011;61048;52.162;4.516;2022-12-01T12:16:28;27.30;;;12.77;;
72904;SDS011;61048;52.162;4.516;2022-12-01T12:19:10;29.63;;;14.68;;
72904;SDS011;61048;52.162;4.516;2022-12-01T12:21:57;26.48;;;13.88;;
72904;SDS011;61048;52.162;4.516;2022-12-01T12:24:35;29.35;;;14.50;;
72904;SDS011;61048;52.162;4.516;2022-12-01T12:27:15;30.15;;;15.10;;
72904;SDS011;61048;52.162;4.516;2022-12-01T12:29:51;29.38;;;12.82;;
72904;SDS011;61048;52.162;4.516;2022-12-01T12:32:36;28.50;;;14.07;;
72904;SDS011;61048;52.162;4.516;2022-12-01T12:35:20;30.95;;;14.88;;
72904;SDS011;61048;52.162;4.516;2022-12-01T12:37:59;26.95;;;13.80;;
72904;SDS011;61048;52.162;4.516;2022-12-01T12:40:37;28.40;;;13.07;;
72904;SDS011;61048;52.162;4.516;2022-12-01T12:43:14;26.42;;;11.85;;
72904;SDS011;61048;52.162;4.516;2022-12-01T12:45:50;27.23;;;13.63;;
72904;SDS011;61048;52.162;4.516;2022-12-01T12:48:27;28.40;;;12.48;;
72904;SDS011;61048;52.162;4.516;2022-12-01T12:51:07;26.17;;;12.98;;
72904;SDS011;61048;52.162;4.516;2022-12-01T12:53:40;26.50;;;12.60;;
72904;SDS011;61048;52.162;4.516;2022-12-01T12:56:11;25.23;;;12.88;;
72904;SDS011;61048;52.162;4.516;2022-12-01T12:58:52;24.35;;;11.50;;
72904;SDS011;61048;52.162;4.516;2022-12-01T13:01:23;23.75;;;12.45;;
72904;SDS011;61048;52.162;4.516;2022-12-01T13:03:54;25.27;;;11.32;;
72904;SDS011;61048;52.162;4.516;2022-12-01T13:06:28;22.63;;;12.32;;
72904;SDS011;61048;52.162;4.516;2022-12-01T13:09:01;23.50;;;12.18;;
72904;SDS011;61048;52.162;4.516;2022-12-01T13:11:33;26.92;;;13.85;;
72904;SDS011;61048;52.162;4.516;2022-12-01T13:14:09;24.33;;;12.05;;
72904;SDS011;61048;52.162;4.516;2022-12-01T13:16:44;22.17;;;11.25;;
72904;SDS011;61048;52.162;4.516;2022-12-01T13:19:14;22.90;;;11.18;;
72904;SDS011;61048;52.162;4.516;2022-12-01T13:21:45;22.15;;;11.63;;
72904;SDS011;61048;52.162;4.516;2022-12-01T13:24:16;24.13;;;11.15;;
72904;SDS011;61048;52.162;4.516;2022-12-01T13:26:46;20.80;;;9.43;;
72904;SDS011;61048;52.162;4.516;2022-12-01T13:29:15;20.63;;;10.52;;
72904;SDS011;61048;52.162;4.516;2022-12-01T13:31:45;21.27;;;11.43;;
72904;SDS011;61048;52.162;4.516;2022-12-01T13:34:20;20.77;;;9.73;;
72904;SDS011;61048;52.162;4.516;2022-12-01T13:36:52;18.80;;;9.57;;
72904;SDS011;61048;52.162;4.516;2022-12-01T13:39:21;24.60;;;12.77;;
72904;SDS011;61048;52.162;4.516;2022-12-01T13:41:59;20.63;;;10.07;;
72904;SDS011;61048;52.162;4.516;2022-12-01T13:44:30;18.67;;;10.55;;
72904;SDS011;61048;52.162;4.516;2022-12-01T13:47:04;18.35;;;8.88;;
72904;SDS011;61048;52.162;4.516;2022-12-01T13:49:55;19.33;;;9.38;;
72904;SDS011;61048;52.162;4.516;2022-12-01T14:00:49;19.35;;;8.43;;
72904;SDS011;61048;52.162;4.516;2022-12-01T14:06:09;19.65;;;9.73;;
72904;SDS011;61048;52.162;4.516;2022-12-01T14:08:51;19.10;;;8.07;;
72904;SDS011;61048;52.162;4.516;2022-12-01T14:11:23;18.20;;;9.43;;
72904;SDS011;61048;52.162;4.516;2022-12-01T14:13:52;16.90;;;9.05;;
72904;SDS011;61048;52.162;4.516;2022-12-01T14:16:22;19.38;;;9.15;;
72904;SDS011;61048;52.162;4.516;2022-12-01T14:18:51;16.48;;;8.63;;
72904;SDS011;61048;52.162;4.516;2022-12-01T14:24:19;16.70;;;7.97;;
72904;SDS011;61048;52.162;4.516;2022-12-01T14:26:48;14.65;;;8.00;;
72904;SDS011;61048;52.162;4.516;2022-12-01T14:34:49;16.25;;;8.35;;
72904;SDS011;61048;52.162;4.516;2022-12-01T14:37:18;14.40;;;8.43;;
72904;SDS011;61048;52.162;4.516;2022-12-01T14:39:49;13.77;;;6.57;;
72904;SDS011;61048;52.162;4.516;2022-12-01T14:42:23;13.40;;;6.63;;
72904;SDS011;61048;52.162;4.516;2022-12-01T14:45:14;14.77;;;7.95;;
72904;SDS011;61048;52.162;4.516;2022-12-01T14:47:45;13.52;;;7.90;;
72904;SDS011;61048;52.162;4.516;2022-12-01T14:50:17;13.85;;;7.45;;
72904;SDS011;61048;52.162;4.516;2022-12-01T14:52:49;12.30;;;6.35;;
72904;SDS011;61048;52.162;4.516;2022-12-01T14:55:21;13.73;;;6.90;;
72904;SDS011;61048;52.162;4.516;2022-12-01T14:57:51;12.90;;;7.13;;
72904;SDS011;61048;52.162;4.516;2022-12-01T15:00:25;12.18;;;6.75;;
72904;SDS011;61048;52.162;4.516;2022-12-01T15:02:53;11.93;;;6.55;;
72904;SDS011;61048;52.162;4.516;2022-12-01T15:05:22;13.15;;;6.28;;
72904;SDS011;61048;52.162;4.516;2022-12-01T15:07:52;11.43;;;6.55;;
72904;SDS011;61048;52.162;4.516;2022-12-01T15:10:22;12.52;;;6.88;;
72904;SDS011;61048;52.162;4.516;2022-12-01T15:12:51;13.68;;;6.90;;
72904;SDS011;61048;52.162;4.516;2022-12-01T15:15:19;12.98;;;6.93;;